ESMSESGG

Guest
Details From ESMS - Malmo Sturup
To ESGG - Goteborg Landvetter
Flight Number -
Tags Generated
Created
Modified
Stats Distance 133 nm / 246 km
Max Altitude 0 ft / 0 m
Waypoints 2
Social Downloads 4
Likes 0
Share VATSIM

Download

Looking for another format? Having issues loading an existing format? Contact us
Advertisement - Login to hide

Notes

Generated

Route

ESMS ESGG

ID Type Via Altitude Latitude Longitude Leg Dist Tot Dist Heading (true) Name
O ESMS APT - 0 ft / 0 m 55.52314˚ 13.35978˚ - 0 nm - -
O ESGG APT - 0 ft / 0 m 57.64952˚ 12.26771˚ 132 nm 132 nm 345° / 344° -

Altitude Profile

Advertisement - Login to hide

ESMS

Details ICAO ESMS (MMX)
Name Malmo Sturup
Region Sweden
Timezone Europe/Stockholm (UTC+1.0)
Stats Elevation 236 ft / 72 m (AMSL)
Location 55.528883° 13.371109°
Runways 2
Magnetic Variation 3.965° E

METAR

ESMS 170620Z 33007KT 9999 BKN004 M01/M02 Q1013 R17/19//95

Decode

TAF

TAF AMD ESMS 170629Z 1706/1806 34008KT 9999 BKN015 TEMPO 1706/1710 BKN004 TEMPO 1710/1712 BKN008 TEMPO 1712/1718 BKN010 BECMG 1715/1718 18008KT

Decode

Departure Runways

ID Width Length Bearing (true) Bearing (mag) Surface Threshold Offset Overrun Length
11 59 ft / 18 m 2,609 ft / 795 m 105.31° 101.35° Asphalt 0 ft / 0 m 0 ft / 0 m
17 148 ft / 45 m 9,176 ft / 2,797 m 173.36° 169.40° Asphalt 0 ft / 0 m 98 ft / 30 m
29 59 ft / 18 m 2,609 ft / 795 m 285.32° 281.36° Asphalt 0 ft / 0 m 0 ft / 0 m
35 148 ft / 45 m 9,176 ft / 2,797 m 353.37° 349.41° Asphalt 0 ft / 0 m 98 ft / 30 m

ESGG

Details ICAO ESGG (GOT)
Name Goteborg Landvetter
Region Sweden
Timezone Europe/Stockholm (UTC+1.0)
Stats Elevation 506 ft / 154 m (AMSL)
Location 57.662836° 12.279819°
Runways 1
Magnetic Variation 3.716° E

METAR

ESGG 170620Z 02005KT 9999 BKN007 M03/M05 Q1013 R03/590195

Decode

TAF

TAF TAF ESGG 170530Z 1706/1806 02005KT 9999 BKN007 BECMG 1706/1708 NSC PROB40 1708/1712 0200 FZFG VV002 BECMG 1712/1714 BKN006 TEMPO 1714/1806 2000 BR BKN004

Decode

Destination Runways

ID Width Length Bearing (true) Bearing (mag) Surface Threshold Offset Overrun Length
03 148 ft / 45 m 10,804 ft / 3,293 m 25.94° 22.22° Asphalt 0 ft / 0 m 207 ft / 63 m
21 148 ft / 45 m 10,804 ft / 3,293 m 205.96° 202.24° Asphalt 0 ft / 0 m 207 ft / 63 m

Approach Navaids

Runway Type Ident Frequency Range Bearing (true) Bearing (mag) Slope Elevation
03 Localiser SSG 110.30 MHz 18 nm / 33 km 25.98° 22.26° - 506 ft / 154 m (AMSL)
03 Glidescope SSG 110.30 MHz 10 nm / 19 km 25.95° 22.24° 3.00° 506 ft / 154 m (AMSL)
21 Localiser NGG 108.50 MHz 18 nm / 33 km 205.92° 202.21° - 506 ft / 154 m (AMSL)
21 Glidescope NGG 108.50 MHz 10 nm / 19 km 205.95° 202.24° 3.00° 506 ft / 154 m (AMSL)

Popular Alternatives